Orbital elements of IRIDIUM 33 DEB
| Launched | 13 September 1997 |
| Flight ended | – |
| Launch site | Tyuratam Missile and Space Center, Kazakhstan (Also known as Baikonur Cosmodrome) |
| Owner | United States |
| NORAD ID | 33886 |
| Date fetched |
Epoch osculation |
Inc. [°] |
Ecc. | RA asc node [hr] |
Arg Peri. [°] |
Mean anom [°] |
Mean motion [rev/day] |
Abs. mag |
| Date fetched |
Epoch osculation |
Inc. [°] |
Ecc. | RA asc node [hr] |
Arg Peri. [°] |
Mean anom [°] |
Mean motion [rev/day] |
Abs. mag |
| 2026 May 04 17:57 | 2026 Apr 30 11:36:09 | 86.3873 | 0.00150 | 0.5883 | 145.0559 | 28.6219 | 14.36222 | 8.743 |
| 2026 May 03 17:57 | 2026 Apr 30 11:36:09 | 86.3873 | 0.00150 | 0.5883 | 145.0559 | 28.6219 | 14.36222 | 8.743 |
| 2026 May 02 17:57 | 2026 Apr 30 11:36:09 | 86.3873 | 0.00150 | 0.5883 | 145.0559 | 28.6219 | 14.36222 | 8.743 |
| 2026 May 01 17:56 | 2026 Apr 30 11:36:09 | 86.3873 | 0.00150 | 0.5883 | 145.0559 | 28.6219 | 14.36222 | 8.743 |
| 2026 Apr 30 17:56 | 2026 Apr 30 11:36:09 | 86.3873 | 0.00150 | 0.5883 | 145.0559 | 28.6219 | 14.36222 | 8.743 |
| 2026 Apr 29 17:57 | 2026 Apr 24 06:31:35 | 86.3877 | 0.00142 | 0.7625 | 164.2066 | 28.6219 | 14.36222 | 8.743 |
| 2026 Apr 28 17:56 | 2026 Apr 24 06:31:35 | 86.3877 | 0.00142 | 0.7625 | 164.2066 | 28.6219 | 14.36222 | 8.743 |
| 2026 Apr 27 17:58 | 2026 Apr 24 06:31:35 | 86.3877 | 0.00142 | 0.7625 | 164.2066 | 28.6219 | 14.36222 | 8.743 |
| 2026 Apr 26 17:58 | 2026 Apr 24 06:31:35 | 86.3877 | 0.00142 | 0.7625 | 164.2066 | 28.6219 | 14.36222 | 8.743 |
| 2026 Apr 25 17:58 | 2026 Apr 24 06:31:35 | 86.3877 | 0.00142 | 0.7625 | 164.2066 | 28.6219 | 14.36222 | 8.743 |
| 2026 Apr 24 17:59 | 2026 Apr 24 06:31:35 | 86.3877 | 0.00142 | 0.7625 | 164.2066 | 28.6219 | 14.36222 | 8.743 |
| 2026 Apr 23 17:57 | 2026 Apr 19 11:24:27 | 86.3880 | 0.00136 | 0.8969 | 179.8134 | 28.6219 | 14.36222 | 8.743 |
| 2026 Apr 22 17:57 | 2026 Apr 19 11:24:27 | 86.3880 | 0.00136 | 0.8969 | 179.8134 | 28.6219 | 14.36222 | 8.743 |
| 2026 Apr 21 17:57 | 2026 Apr 19 11:24:27 | 86.3880 | 0.00136 | 0.8969 | 179.8134 | 28.6219 | 14.36222 | 8.743 |
| 2026 Apr 20 17:57 | 2026 Apr 19 11:24:27 | 86.3880 | 0.00136 | 0.8969 | 179.8134 | 28.6219 | 14.36222 | 8.743 |
| 2026 Apr 19 17:58 | 2026 Apr 19 11:24:27 | 86.3880 | 0.00136 | 0.8969 | 179.8134 | 28.6219 | 14.36222 | 8.743 |
| 2026 Apr 18 17:56 | 2026 Apr 13 06:21:08 | 86.3882 | 0.00129 | 1.0710 | 201.1220 | 28.6219 | 14.36222 | 8.743 |
| 2026 Apr 16 17:57 | 2026 Apr 13 06:21:08 | 86.3882 | 0.00129 | 1.0710 | 201.1220 | 28.6219 | 14.36222 | 8.743 |
| 2026 Apr 14 17:57 | 2026 Apr 13 06:21:08 | 86.3882 | 0.00129 | 1.0710 | 201.1220 | 28.6219 | 14.36222 | 8.743 |
| 2026 Apr 13 17:57 | 2026 Apr 13 06:21:08 | 86.3882 | 0.00129 | 1.0710 | 201.1220 | 28.6219 | 14.36222 | 8.743 |
| 2026 Apr 12 17:57 | 2026 Apr 08 12:53:01 | 86.3881 | 0.00124 | 1.2035 | 218.1800 | 28.6219 | 14.36222 | 8.743 |
| 2026 Apr 11 17:57 | 2026 Apr 08 12:53:01 | 86.3881 | 0.00124 | 1.2035 | 218.1800 | 28.6219 | 14.36222 | 8.743 |
| 2026 Apr 10 17:58 | 2026 Apr 08 12:53:01 | 86.3881 | 0.00124 | 1.2035 | 218.1800 | 28.6219 | 14.36222 | 8.743 |
| 2026 Apr 09 18:01 | 2026 Apr 08 12:53:01 | 86.3881 | 0.00124 | 1.2035 | 218.1800 | 28.6219 | 14.36222 | 8.743 |
| 2026 Apr 08 17:57 | 2026 Apr 08 12:53:01 | 86.3881 | 0.00124 | 1.2035 | 218.1800 | 28.6219 | 14.36222 | 8.743 |
| 2026 Apr 07 17:57 | 2026 Apr 02 07:49:19 | 86.3880 | 0.00120 | 1.3776 | 241.6300 | 28.6219 | 14.36222 | 8.743 |